createdAt,value
2019-02-25T00:03:18.667Z,75.40
2019-02-25T00:05:47.395Z,76.50
2019-02-25T00:08:16.229Z,76.70
2019-02-25T00:10:44.965Z,76.70
2019-02-25T00:13:13.791Z,76.80
2019-02-25T00:15:42.515Z,77.00
2019-02-25T00:18:11.189Z,77.20
2019-02-25T00:20:39.873Z,76.60
2019-02-25T00:25:36.948Z,76.40
2019-02-25T00:28:05.668Z,77.30
2019-02-25T00:30:34.408Z,77.30
2019-02-25T00:33:03.361Z,77.20
2019-02-25T00:35:32.157Z,76.90
2019-02-25T00:38:00.873Z,76.90
2019-02-25T00:40:29.606Z,76.60
2019-02-25T00:42:58.260Z,75.10
2019-02-25T00:47:55.310Z,74.70
2019-02-25T00:50:24.005Z,75.40
2019-02-25T00:52:52.689Z,76.10
2019-02-25T00:55:21.937Z,76.50
2019-02-25T00:57:50.660Z,76.70
2019-02-25T01:00:19.426Z,76.90
2019-02-25T01:02:48.333Z,76.50
2019-02-25T01:07:45.419Z,76.90
2019-02-25T01:10:14.564Z,77.70
2019-02-25T01:12:43.830Z,78.40
2019-02-25T01:15:12.501Z,77.30
2019-02-25T01:17:41.437Z,77.40
2019-02-25T01:20:10.199Z,77.40
2019-02-25T01:22:38.826Z,77.40
2019-02-25T01:25:08.619Z,76.60
2019-02-25T01:30:07.872Z,76.90
2019-02-25T01:32:37.265Z,77.60
2019-02-25T01:35:07.249Z,77.40
2019-02-25T01:37:36.258Z,76.90
2019-02-25T01:40:05.429Z,77.00
2019-02-25T01:42:34.104Z,77.20
2019-02-25T01:45:02.873Z,77.00
2019-02-25T01:47:31.532Z,75.70
2019-02-25T01:52:28.776Z,75.50
2019-02-25T01:54:57.426Z,76.40
2019-02-25T01:57:26.082Z,76.50
2019-02-25T01:59:54.725Z,76.80
2019-02-25T02:02:23.378Z,76.70
2019-02-25T02:04:52.283Z,76.50
2019-02-25T02:07:21.100Z,76.50
2019-02-25T02:09:49.825Z,76.10
2019-02-25T02:14:46.775Z,76.10
2019-02-25T02:17:15.477Z,76.90
2019-02-25T02:19:44.137Z,76.70
2019-02-25T02:22:12.789Z,77.40
2019-02-25T02:24:42.285Z,77.40
2019-02-25T02:27:10.918Z,77.80
2019-02-25T02:29:39.614Z,78.10
2019-02-25T02:32:08.279Z,77.30
2019-02-25T02:37:05.211Z,77.30
2019-02-25T02:39:34.134Z,77.90
2019-02-25T02:42:12.707Z,77.90
2019-02-25T02:44:41.898Z,78.10
2019-02-25T02:47:34.964Z,78.70
2019-02-25T02:50:03.885Z,79.10
2019-02-25T02:52:33.183Z,78.50
2019-02-25T02:57:30.132Z,78.60
2019-02-25T02:59:58.777Z,79.40
2019-02-25T03:02:27.444Z,79.30
2019-02-25T03:04:56.145Z,79.30
2019-02-25T03:07:24.843Z,79.20
2019-02-25T03:09:53.482Z,79.00
2019-02-25T03:12:22.129Z,79.50
2019-02-25T03:14:50.839Z,81.10
2019-02-25T03:19:47.865Z,79.20
2019-02-25T03:22:16.712Z,80.10
2019-02-25T03:24:45.382Z,80.10
2019-02-25T03:27:14.057Z,80.20
2019-02-25T03:29:42.708Z,80.20
2019-02-25T03:32:11.646Z,80.10
2019-02-25T03:34:40.290Z,79.30
2019-02-25T03:42:05.576Z,79.10
2019-02-25T03:44:34.240Z,79.30
2019-02-25T03:47:02.919Z,79.10
2019-02-25T03:49:31.585Z,79.30
2019-02-25T03:52:00.294Z,79.70
2019-02-25T03:54:29.302Z,80.00
2019-02-25T03:56:58.306Z,79.00
2019-02-25T04:01:55.262Z,78.60
2019-02-25T04:04:23.910Z,78.90
2019-02-25T04:06:52.687Z,79.00
2019-02-25T04:09:21.624Z,79.30
2019-02-25T04:11:50.285Z,79.60
2019-02-25T04:14:19.069Z,79.40
2019-02-25T04:16:47.804Z,79.80
2019-02-25T04:19:16.501Z,78.70
2019-02-25T04:24:13.475Z,78.50
2019-02-25T04:26:42.154Z,79.60
2019-02-25T04:29:10.820Z,79.70
2019-02-25T04:31:39.545Z,79.60
2019-02-25T04:34:08.212Z,80.20
2019-02-25T04:36:36.873Z,80.20
2019-02-25T04:39:06.189Z,80.00
2019-02-25T04:41:34.833Z,78.70
2019-02-25T04:46:31.864Z,78.40
2019-02-25T04:49:00.806Z,79.40
2019-02-25T04:51:29.455Z,79.70
2019-02-25T04:53:58.113Z,79.60
2019-02-25T04:56:26.819Z,79.80
2019-02-25T04:58:55.503Z,79.60
2019-02-25T05:01:24.169Z,80.40
2019-02-25T05:03:52.851Z,79.40
2019-02-25T05:08:50.108Z,79.40
2019-02-25T05:11:18.903Z,80.30
2019-02-25T05:13:47.571Z,80.30
2019-02-25T05:16:16.287Z,80.60
2019-02-25T05:18:44.998Z,80.80
2019-02-25T05:21:13.725Z,80.80
2019-02-25T05:23:42.746Z,80.20
2019-02-25T05:28:39.694Z,80.10
2019-02-25T05:31:08.385Z,81.50
2019-02-25T05:33:37.349Z,81.10
2019-02-25T05:36:06.069Z,80.80
2019-02-25T05:38:34.733Z,80.80
2019-02-25T05:41:03.384Z,80.60
2019-02-25T05:43:32.041Z,80.90
2019-02-25T05:46:00.718Z,79.20
2019-02-25T05:50:57.855Z,79.20
2019-02-25T05:53:26.569Z,80.00
2019-02-25T05:55:55.288Z,79.80
2019-02-25T05:58:23.990Z,80.40
2019-02-25T06:00:52.753Z,80.50
2019-02-25T06:03:21.471Z,79.60
2019-02-25T06:05:50.222Z,79.50
2019-02-25T06:08:19.157Z,97.10
2019-02-25T06:13:16.230Z,78.50
2019-02-25T06:15:45.141Z,79.20
2019-02-25T06:18:13.994Z,79.80
2019-02-25T06:20:42.645Z,80.60
2019-02-25T06:23:11.459Z,80.80
2019-02-25T06:25:40.118Z,81.10
2019-02-25T06:28:09.032Z,80.60
2019-02-25T06:30:37.938Z,79.80
2019-02-25T06:35:34.881Z,81.50
2019-02-25T06:38:03.686Z,82.80
2019-02-25T06:40:32.368Z,83.50
2019-02-25T06:43:01.286Z,83.80
2019-02-25T06:45:31.169Z,83.70
2019-02-25T06:48:00.063Z,84.00
2019-02-25T06:50:28.810Z,84.30
2019-02-25T06:52:57.477Z,83.10
2019-02-25T06:57:54.412Z,83.40
2019-02-25T07:00:23.103Z,84.30
2019-02-25T07:02:51.756Z,84.20
2019-02-25T07:05:37.310Z,84.20
2019-02-25T07:08:25.019Z,84.30
2019-02-25T07:11:02.801Z,83.60
2019-02-25T07:13:49.518Z,84.20
2019-02-25T07:16:31.142Z,83.10
2019-02-25T07:19:27.670Z,95.30
2019-02-25T07:22:18.258Z,83.50
2019-02-25T07:24:57.382Z,83.20
2019-02-25T07:27:54.425Z,83.30
2019-02-25T07:30:28.782Z,83.40
2019-02-25T07:33:15.790Z,84.00
2019-02-25T07:35:54.346Z,84.50
2019-02-25T07:38:39.369Z,82.40
2019-02-25T07:44:11.708Z,81.10
2019-02-25T07:47:01.482Z,79.70
2019-02-25T07:49:38.739Z,78.10
2019-02-25T07:52:29.350Z,76.00
2019-02-25T07:55:26.134Z,71.00
2019-02-25T07:58:29.009Z,71.50
2019-02-25T08:01:22.608Z,69.20
2019-02-25T08:04:04.116Z,67.80
2019-02-25T08:06:38.746Z,65.70
2019-02-25T08:09:33.257Z,62.80
2019-02-25T08:18:09.111Z,62.10
2019-02-25T08:20:46.387Z,61.50
2019-02-25T08:23:24.953Z,60.50
2019-02-25T08:26:12.685Z,60.80
2019-02-25T08:29:00.432Z,59.70
2019-02-25T08:31:46.930Z,58.90
2019-02-25T08:34:26.452Z,57.20
2019-02-25T08:37:18.891Z,57.40
2019-02-25T08:39:59.157Z,57.80
2019-02-25T08:42:35.070Z,55.30
2019-02-25T08:45:12.800Z,54.10
2019-02-25T08:48:06.573Z,54.60
2019-02-25T08:50:35.216Z,54.80
2019-02-25T08:53:03.887Z,54.30
2019-02-25T08:55:32.873Z,53.50
2019-02-25T09:00:29.884Z,53.20
2019-02-25T09:02:58.560Z,53.90
2019-02-25T09:05:27.499Z,52.30
2019-02-25T09:07:56.197Z,51.50
2019-02-25T09:10:25.180Z,51.90
2019-02-25T09:12:53.829Z,50.80
2019-02-25T09:15:22.491Z,49.10
2019-02-25T09:17:49.962Z,49.40
2019-02-25T09:22:46.988Z,50.40
2019-02-25T09:25:15.746Z,50.20
2019-02-25T09:27:44.373Z,49.80
2019-02-25T09:30:15.284Z,49.40
2019-02-25T09:32:44.034Z,49.90
2019-02-25T09:35:12.755Z,48.70
2019-02-25T09:37:41.405Z,48.40
2019-02-25T09:42:39.021Z,47.40
2019-02-25T09:45:09.117Z,47.30
2019-02-25T09:47:37.778Z,47.20
2019-02-25T09:50:07.518Z,46.80
2019-02-25T09:52:36.266Z,47.80
2019-02-25T09:55:05.304Z,48.10
2019-02-25T09:57:33.939Z,48.50
2019-02-25T10:00:02.631Z,47.20
2019-02-25T10:04:59.684Z,46.40
2019-02-25T10:07:28.656Z,46.50
2019-02-25T10:09:57.393Z,47.30
2019-02-25T10:12:26.325Z,46.90
2019-02-25T10:14:54.959Z,46.20
2019-02-25T10:17:24.181Z,46.70
2019-02-25T10:19:52.883Z,46.80
2019-02-25T10:22:21.644Z,45.80
2019-02-25T10:27:18.616Z,44.20
2019-02-25T10:29:47.368Z,45.00
2019-02-25T10:32:16.058Z,45.50
2019-02-25T10:34:44.711Z,45.00
2019-02-25T10:37:15.086Z,44.70
2019-02-25T10:39:45.324Z,45.10
2019-02-25T10:42:14.131Z,45.10
2019-02-25T10:44:42.870Z,43.30
2019-02-25T10:49:41.586Z,43.90
2019-02-25T10:52:10.832Z,43.80
2019-02-25T10:54:41.845Z,43.30
2019-02-25T10:57:14.538Z,44.00
2019-02-25T10:59:43.191Z,43.90
2019-02-25T11:02:13.685Z,43.30
2019-02-25T11:04:42.262Z,42.90
2019-02-25T11:07:10.912Z,44.90
2019-02-25T11:12:19.267Z,42.80
2019-02-25T11:14:47.924Z,42.90
2019-02-25T11:17:18.202Z,43.70
2019-02-25T11:19:47.020Z,43.70
2019-02-25T11:22:16.369Z,43.50
2019-02-25T11:24:46.858Z,42.60
2019-02-25T11:27:15.669Z,43.10
2019-02-25T11:32:14.598Z,43.00
2019-02-25T11:34:43.253Z,44.30
2019-02-25T11:37:11.909Z,43.50
2019-02-25T11:39:40.866Z,43.60
2019-02-25T11:42:10.828Z,43.90
2019-02-25T11:44:39.950Z,43.30
2019-02-25T11:49:37.446Z,43.70
2019-02-25T11:54:34.526Z,43.50
2019-02-25T11:57:03.540Z,43.90
2019-02-25T11:59:32.200Z,43.90
2019-02-25T12:02:00.922Z,43.70
2019-02-25T12:04:29.600Z,43.50
2019-02-25T12:06:58.286Z,44.40
2019-02-25T12:09:26.937Z,43.90
2019-02-25T12:11:55.610Z,43.50
2019-02-25T12:16:52.595Z,43.40
2019-02-25T12:19:21.398Z,44.20
2019-02-25T12:21:50.063Z,44.20
2019-02-25T12:24:18.728Z,44.70
2019-02-25T12:26:47.382Z,44.70
2019-02-25T12:29:16.301Z,44.50
2019-02-25T12:31:44.959Z,44.00
2019-02-25T12:34:13.622Z,43.90
2019-02-25T12:39:10.979Z,45.30
2019-02-25T12:41:39.750Z,46.40
2019-02-25T12:44:08.482Z,46.00
2019-02-25T12:46:37.130Z,46.50
2019-02-25T12:49:05.836Z,47.10
2019-02-25T12:51:34.476Z,46.00
2019-02-25T12:54:03.201Z,46.00
2019-02-25T12:56:31.854Z,46.30
2019-02-25T13:01:28.989Z,46.30
2019-02-25T13:03:57.649Z,47.00
2019-02-25T13:06:26.595Z,47.60
2019-02-25T13:08:55.705Z,47.30
2019-02-25T13:11:24.679Z,47.40
2019-02-25T13:13:53.421Z,48.10
2019-02-25T13:16:22.071Z,47.90
2019-02-25T13:21:19.162Z,47.80
2019-02-25T13:23:47.832Z,47.90
2019-02-25T13:26:16.500Z,47.70
2019-02-25T13:28:45.205Z,48.40
2019-02-25T13:31:14.175Z,48.50
2019-02-25T13:33:42.898Z,48.30
2019-02-25T13:36:12.830Z,47.60
2019-02-25T13:38:41.595Z,46.70
2019-02-25T13:43:38.952Z,46.70
2019-02-25T13:46:07.830Z,47.70
2019-02-25T13:48:36.563Z,47.90
2019-02-25T13:51:05.226Z,47.80
2019-02-25T13:53:33.949Z,47.80
2019-02-25T13:56:02.693Z,48.00
2019-02-25T13:58:31.883Z,47.90
2019-02-25T14:01:00.780Z,47.10
2019-02-25T14:05:57.869Z,47.30
2019-02-25T14:08:26.808Z,47.80
2019-02-25T14:10:55.633Z,47.70
2019-02-25T14:13:24.308Z,47.40
2019-02-25T14:15:53.266Z,47.80
2019-02-25T14:18:22.265Z,47.90
2019-02-25T14:20:51.283Z,47.70
2019-02-25T14:23:20.420Z,48.20
2019-02-25T14:28:17.402Z,48.50
2019-02-25T14:30:46.059Z,47.20
2019-02-25T14:33:14.936Z,47.20
2019-02-25T14:35:43.722Z,47.20
2019-02-25T14:38:15.933Z,47.40
2019-02-25T14:40:44.816Z,47.30
2019-02-25T14:43:15.621Z,46.60
2019-02-25T14:48:18.231Z,46.80
2019-02-25T14:50:44.303Z,47.90
2019-02-25T14:53:14.320Z,47.80
2019-02-25T14:55:46.948Z,48.20
2019-02-25T14:58:15.513Z,48.10
2019-02-25T15:00:44.079Z,48.00
2019-02-25T15:03:12.786Z,48.30
2019-02-25T15:05:41.974Z,47.60
2019-02-25T15:10:40.692Z,47.50
2019-02-25T15:13:10.547Z,48.40
2019-02-25T15:15:41.285Z,48.40
2019-02-25T15:18:10.072Z,47.00
2019-02-25T15:20:38.712Z,46.50
2019-02-25T15:23:07.900Z,46.60
2019-02-25T15:25:40.394Z,47.10
2019-02-25T15:28:09.415Z,47.00
2019-02-25T15:33:07.016Z,47.00
2019-02-25T15:35:37.125Z,47.90
2019-02-25T15:38:06.172Z,47.90
2019-02-25T15:40:34.852Z,47.10
2019-02-25T15:43:12.572Z,47.30
2019-02-25T15:45:41.992Z,47.30
2019-02-25T15:48:17.840Z,47.60
2019-02-25T15:50:48.425Z,47.30
2019-02-25T15:53:18.104Z,47.10
2019-02-25T15:58:15.414Z,47.20
2019-02-25T16:00:44.643Z,47.80
2019-02-25T16:03:13.703Z,47.80
2019-02-25T16:05:44.429Z,48.10
2019-02-25T16:08:16.130Z,48.10
2019-02-25T16:10:44.481Z,48.20
2019-02-25T16:13:14.284Z,48.40
2019-02-25T16:15:43.115Z,48.20
2019-02-25T16:20:45.952Z,48.00
2019-02-25T16:23:13.026Z,48.70
2019-02-25T16:25:42.130Z,48.80
2019-02-25T16:28:14.435Z,48.90
2019-02-25T16:30:42.435Z,49.60
2019-02-25T16:33:14.352Z,49.10
2019-02-25T16:35:43.621Z,49.30
2019-02-25T16:38:12.694Z,49.00
2019-02-25T16:43:12.503Z,49.60
2019-02-25T16:45:41.945Z,50.40
2019-02-25T16:48:10.673Z,50.20
2019-02-25T16:50:41.528Z,50.30
2019-02-25T16:53:10.875Z,50.70
2019-02-25T16:55:42.174Z,51.20
2019-02-25T16:58:13.189Z,51.40
2019-02-25T17:00:41.898Z,51.60
2019-02-25T17:05:42.880Z,51.70
2019-02-25T17:08:14.696Z,52.50
2019-02-25T17:10:43.606Z,52.90
2019-02-25T17:13:14.318Z,53.50
2019-02-25T17:15:45.937Z,53.80
2019-02-25T17:18:15.804Z,54.20
2019-02-25T17:20:45.125Z,54.50
2019-02-25T17:23:14.507Z,54.80
2019-02-25T17:28:15.237Z,55.00
2019-02-25T17:30:45.613Z,55.80
2019-02-25T17:33:14.841Z,56.10
2019-02-25T17:35:45.326Z,56.60
2019-02-25T17:38:14.180Z,56.70
2019-02-25T17:40:43.090Z,56.20
2019-02-25T17:43:13.971Z,56.10
2019-02-25T17:45:43.071Z,56.50
2019-02-25T17:50:42.287Z,58.10
2019-02-25T17:53:11.014Z,58.60
2019-02-25T17:55:39.849Z,59.10
2019-02-25T17:58:09.167Z,60.10
2019-02-25T18:00:42.257Z,60.10
2019-02-25T18:03:10.213Z,60.30
2019-02-25T18:05:40.667Z,60.70
2019-02-25T18:08:14.566Z,61.60
2019-02-25T18:13:11.485Z,59.60
2019-02-25T18:15:40.526Z,60.60
2019-02-25T18:18:11.826Z,61.90
2019-02-25T18:20:39.731Z,62.80
2019-02-25T18:23:08.574Z,63.80
2019-02-25T18:25:37.625Z,64.40
2019-02-25T18:28:08.526Z,63.50
2019-02-25T18:30:38.505Z,63.30
2019-02-25T18:35:38.220Z,63.70
2019-02-25T18:38:07.624Z,65.50
2019-02-25T18:40:40.142Z,66.20
2019-02-25T18:43:07.640Z,66.80
2019-02-25T18:45:38.440Z,66.90
2019-02-25T18:48:07.297Z,67.60
2019-02-25T18:50:36.360Z,67.80
2019-02-25T18:53:05.136Z,67.40
2019-02-25T18:58:05.058Z,69.10
2019-02-25T19:00:36.973Z,69.90
2019-02-25T19:03:05.876Z,70.30
2019-02-25T19:05:34.590Z,70.30
2019-02-25T19:08:04.913Z,70.30
2019-02-25T19:10:33.633Z,70.00
2019-02-25T19:13:02.770Z,70.40
2019-02-25T19:17:59.796Z,71.10
2019-02-25T19:20:28.647Z,72.70
2019-02-25T19:23:00.477Z,73.50
2019-02-25T19:25:28.063Z,73.40
2019-02-25T19:27:58.610Z,73.60
2019-02-25T19:30:29.351Z,73.50
2019-02-25T19:32:57.837Z,73.70
2019-02-25T19:35:28.714Z,73.70
2019-02-25T19:40:25.768Z,73.80
2019-02-25T19:42:56.721Z,74.70
2019-02-25T19:45:25.040Z,75.60
2019-02-25T19:47:55.980Z,76.70
2019-02-25T19:50:25.961Z,78.00
2019-02-25T19:52:54.903Z,77.50
2019-02-25T19:55:23.937Z,77.60
2019-02-25T19:57:52.597Z,76.20
2019-02-25T20:03:04.788Z,76.50
2019-02-25T20:05:27.105Z,77.30
2019-02-25T20:07:55.805Z,77.30
2019-02-25T20:10:24.934Z,77.50
2019-02-25T20:12:53.861Z,77.50
2019-02-25T20:15:25.049Z,77.40
2019-02-25T20:17:55.193Z,77.30
2019-02-25T20:20:25.429Z,77.00
2019-02-25T20:25:24.650Z,77.30
2019-02-25T20:27:54.993Z,77.80
2019-02-25T20:30:25.741Z,77.50
2019-02-25T20:32:54.652Z,77.40
2019-02-25T20:35:24.584Z,77.50
2019-02-25T20:37:55.495Z,77.90
2019-02-25T20:40:26.015Z,78.60
2019-02-25T20:42:56.088Z,77.90
2019-02-25T20:47:56.987Z,78.20
2019-02-25T20:50:25.203Z,78.20
2019-02-25T20:52:55.854Z,78.30
2019-02-25T20:55:25.319Z,77.80
2019-02-25T20:57:54.963Z,78.40
2019-02-25T21:00:23.949Z,78.70
2019-02-25T21:02:52.757Z,78.80
2019-02-25T21:05:22.772Z,79.70
2019-02-25T21:10:22.737Z,81.00
2019-02-25T21:12:54.599Z,81.80
2019-02-25T21:15:23.121Z,81.70
2019-02-25T21:17:52.162Z,82.20
2019-02-25T21:20:23.676Z,82.40
2019-02-25T21:22:57.304Z,82.70
2019-02-25T21:25:26.397Z,82.80
2019-02-25T21:27:57.179Z,81.30
2019-02-25T21:32:54.356Z,81.00
2019-02-25T21:35:25.550Z,81.80
2019-02-25T21:37:54.624Z,81.20
2019-02-25T21:40:25.048Z,81.30
2019-02-25T21:42:56.352Z,82.00
2019-02-25T21:45:27.084Z,82.60
2019-02-25T21:47:56.536Z,83.20
2019-02-25T21:50:28.358Z,83.00
2019-02-25T21:55:26.229Z,82.30
2019-02-25T21:57:57.239Z,83.70
2019-02-25T22:00:27.087Z,84.10
2019-02-25T22:02:56.659Z,83.50
2019-02-25T22:05:25.384Z,84.10
2019-02-25T22:07:56.647Z,83.90
2019-02-25T22:10:24.528Z,83.70
2019-02-25T22:12:53.228Z,82.60
2019-02-25T22:17:53.386Z,82.10
2019-02-25T22:20:23.350Z,83.20
2019-02-25T22:22:56.698Z,83.40
2019-02-25T22:25:23.000Z,83.40
2019-02-25T22:27:51.724Z,82.30
2019-02-25T22:30:20.424Z,82.90
2019-02-25T22:32:49.212Z,82.60
2019-02-25T22:35:17.899Z,82.80
2019-02-25T22:40:17.323Z,82.80
2019-02-25T22:42:47.987Z,83.70
2019-02-25T22:45:18.606Z,83.30
2019-02-25T22:47:47.125Z,82.90
2019-02-25T22:50:15.845Z,82.70
2019-02-25T22:52:44.540Z,83.20
2019-02-25T22:55:15.323Z,83.60
2019-02-25T22:57:45.734Z,91.00
2019-02-25T23:02:45.207Z,82.00
2019-02-25T23:05:18.577Z,83.10
2019-02-25T23:07:48.028Z,83.80
2019-02-25T23:10:17.444Z,84.50
2019-02-25T23:12:47.118Z,84.70
2019-02-25T23:15:15.786Z,85.30
2019-02-25T23:17:46.133Z,84.60
2019-02-25T23:22:43.582Z,84.80
2019-02-25T23:25:12.562Z,85.90
2019-02-25T23:27:41.224Z,85.70
2019-02-25T23:30:09.973Z,86.50
2019-02-25T23:32:39.454Z,86.40
2019-02-25T23:35:11.463Z,84.80
2019-02-25T23:37:38.854Z,85.50
2019-02-25T23:40:09.500Z,83.80
2019-02-25T23:45:08.805Z,83.80
2019-02-25T23:47:39.550Z,85.10
2019-02-25T23:50:10.539Z,85.70
2019-02-25T23:52:39.185Z,85.80
2019-02-25T23:55:12.169Z,85.30
2019-02-25T23:57:39.036Z,85.10
